DUB weather

Dublin Airport
Dublin, County Dublin, Ireland

Public forecast

Using degrees Celsius for public forecast. Weather courtesy of forecast.io.

METAR (pilot weather report)

Retrieved 2018/12/13 03:30 UTC (0 seconds ago):

EIDW 130330Z 14020G34KT 9999 FEW017 OVC021 07/02 Q1007 NOSIG

TAF (pilot weather forecast)

Forecast is more than 6 hours old.

Retrieved 2018/12/12 18:25 UTC (9 hours ago):

TAF EIDW 121700Z 1218/1318 15012KT 9999 FEW008 BKN012 BECMG 1218/1221 15020G30KT PROB30 TEMPO 1218/1221 5000 -SHRA BKN010 BECMG 1220/1222 15025G40KT TEMPO 1300/1318 5000 -RA BKN010 BECMG 1313/1315 14018G30KT